KLKV/LKV METAR and TAF weather

Enter ICAO airport designator
Station Type Date Time Source
KLKV METAR 2019/05/21 21:34 UTC NOAA

KLKV 212134Z AUTO VRB04KT 10SM SCT008 BKN012 06/03 A2971 RMK AO2 RAE16 PNO $


Station Type Date Time Source
KLKV Decoded METAR 2019/05/21 21:34 UTC NOAA

Lakeview, Lake County Airport, OR, United States (KLKV) 42-10N 120-24W
May 21, 2019 - 05:34 PM EDT / 2019.05.21 2134 UTC
Wind: Variable at 5 MPH (4 KT):0
Visibility: 10 mile(s):0
Sky conditions: mostly cloudy
Temperature: 42 F (6 C)
Dew Point: 37 F (3 C)
Relative Humidity: 81%
Pressure (altimeter): 29.71 in. Hg (1006 hPa)
ob: KLKV 212134Z AUTO VRB04KT 10SM SCT008 BKN012 06/03 A2971 RMK AO2 RAE16 PNO
cycle: 21

Station Type Date Time Source
KLKV TAF UTC NOAA

Error!

Example: see airport list